sensor_id;sensor_type;location;lat;lon;timestamp;pressure;altitude;pressure_sealevel;temperature;humidity
74466;BME280;62916;50.044;15.938;2023-04-09T00:02:28;99850.77;;;19.43;59.27
74466;BME280;62916;50.044;15.938;2023-04-09T00:05:00;99849.85;;;19.40;59.41
74466;BME280;62916;50.044;15.938;2023-04-09T00:07:30;99848.57;;;19.37;59.33
74466;BME280;62916;50.044;15.938;2023-04-09T00:10:01;99846.79;;;19.35;59.51
74466;BME280;62916;50.044;15.938;2023-04-09T00:12:32;99851.55;;;19.32;59.60
74466;BME280;62916;50.044;15.938;2023-04-09T00:15:04;99851.41;;;19.29;59.60
74466;BME280;62916;50.044;15.938;2023-04-09T00:17:39;99848.67;;;19.25;59.78
74466;BME280;62916;50.044;15.938;2023-04-09T00:20:11;99848.65;;;19.23;59.77
74466;BME280;62916;50.044;15.938;2023-04-09T00:22:42;99845.30;;;19.20;59.83
74466;BME280;62916;50.044;15.938;2023-04-09T00:25:14;99845.09;;;19.18;59.83
74466;BME280;62916;50.044;15.938;2023-04-09T00:27:45;99841.10;;;19.16;59.90
74466;BME280;62916;50.044;15.938;2023-04-09T00:30:16;99833.64;;;19.14;60.11
74466;BME280;62916;50.044;15.938;2023-04-09T00:32:47;99835.58;;;19.13;60.07
74466;BME280;62916;50.044;15.938;2023-04-09T00:35:18;99832.50;;;19.11;60.11
74466;BME280;62916;50.044;15.938;2023-04-09T00:37:49;99827.67;;;19.09;60.12
74466;BME280;62916;50.044;15.938;2023-04-09T00:40:20;99821.29;;;19.06;60.14
74466;BME280;62916;50.044;15.938;2023-04-09T00:42:51;99824.77;;;19.06;60.18
74466;BME280;62916;50.044;15.938;2023-04-09T00:45:22;99823.72;;;19.04;60.36
74466;BME280;62916;50.044;15.938;2023-04-09T00:47:53;99831.84;;;19.02;60.45
74466;BME280;62916;50.044;15.938;2023-04-09T00:50:24;99830.90;;;18.99;60.46
74466;BME280;62916;50.044;15.938;2023-04-09T00:52:55;99829.23;;;18.97;60.46
74466;BME280;62916;50.044;15.938;2023-04-09T00:55:27;99829.06;;;18.95;60.53
74466;BME280;62916;50.044;15.938;2023-04-09T00:57:59;99825.40;;;18.98;60.77
74466;BME280;62916;50.044;15.938;2023-04-09T01:00:30;99826.79;;;19.04;60.84
74466;BME280;62916;50.044;15.938;2023-04-09T01:03:01;99825.98;;;19.11;60.79
74466;BME280;62916;50.044;15.938;2023-04-09T01:05:39;99823.77;;;19.15;60.59
74466;BME280;62916;50.044;15.938;2023-04-09T01:08:15;99820.02;;;19.17;60.34
74466;BME280;62916;50.044;15.938;2023-04-09T01:10:54;99821.58;;;19.17;60.25
74466;BME280;62916;50.044;15.938;2023-04-09T01:13:34;99821.10;;;19.14;60.18
74466;BME280;62916;50.044;15.938;2023-04-09T01:16:10;99823.35;;;19.14;60.14
74466;BME280;62916;50.044;15.938;2023-04-09T01:18:45;99823.10;;;19.12;60.06
74466;BME280;62916;50.044;15.938;2023-04-09T01:21:22;99822.49;;;19.09;60.15
74466;BME280;62916;50.044;15.938;2023-04-09T01:23:58;99824.31;;;19.07;60.17
74466;BME280;62916;50.044;15.938;2023-04-09T01:26:44;99822.09;;;19.03;60.17
74466;BME280;62916;50.044;15.938;2023-04-09T01:29:20;99823.23;;;19.00;60.27
74466;BME280;62916;50.044;15.938;2023-04-09T01:31:52;99820.80;;;18.97;60.37
74466;BME280;62916;50.044;15.938;2023-04-09T01:34:24;99819.73;;;18.95;60.52
74466;BME280;62916;50.044;15.938;2023-04-09T01:36:58;99818.88;;;18.92;60.49
74466;BME280;62916;50.044;15.938;2023-04-09T01:39:30;99817.42;;;18.89;60.50
74466;BME280;62916;50.044;15.938;2023-04-09T01:42:02;99817.39;;;18.85;60.51
74466;BME280;62916;50.044;15.938;2023-04-09T01:44:33;99819.30;;;18.85;60.56
74466;BME280;62916;50.044;15.938;2023-04-09T01:47:07;99821.35;;;18.84;60.79
74466;BME280;62916;50.044;15.938;2023-04-09T01:49:39;99823.62;;;18.82;60.75
74466;BME280;62916;50.044;15.938;2023-04-09T01:52:11;99824.64;;;18.80;60.87
74466;BME280;62916;50.044;15.938;2023-04-09T01:54:44;99829.77;;;18.78;60.78
74466;BME280;62916;50.044;15.938;2023-04-09T01:57:15;99829.05;;;18.75;60.87
74466;BME280;62916;50.044;15.938;2023-04-09T01:59:46;99830.02;;;18.73;61.00
74466;BME280;62916;50.044;15.938;2023-04-09T02:02:19;99828.41;;;18.71;60.95
74466;BME280;62916;50.044;15.938;2023-04-09T02:04:56;99831.29;;;18.69;61.01
74466;BME280;62916;50.044;15.938;2023-04-09T02:07:36;99828.66;;;18.66;61.11
74466;BME280;62916;50.044;15.938;2023-04-09T02:10:10;99828.38;;;18.64;61.16
74466;BME280;62916;50.044;15.938;2023-04-09T02:12:44;99825.05;;;18.68;61.42
74466;BME280;62916;50.044;15.938;2023-04-09T02:15:18;99826.06;;;18.74;61.45
74466;BME280;62916;50.044;15.938;2023-04-09T02:17:50;99831.49;;;18.81;61.40
74466;BME280;62916;50.044;15.938;2023-04-09T02:20:21;99832.67;;;18.85;61.08
74466;BME280;62916;50.044;15.938;2023-04-09T02:22:53;99831.77;;;18.86;60.95
74466;BME280;62916;50.044;15.938;2023-04-09T02:25:25;99834.21;;;18.85;61.00
74466;BME280;62916;50.044;15.938;2023-04-09T02:27:56;99837.11;;;18.85;60.67
74466;BME280;62916;50.044;15.938;2023-04-09T02:30:27;99837.38;;;18.81;60.67
74466;BME280;62916;50.044;15.938;2023-04-09T02:32:58;99836.11;;;18.81;60.65
74466;BME280;62916;50.044;15.938;2023-04-09T02:35:29;99836.23;;;18.78;60.65
74466;BME280;62916;50.044;15.938;2023-04-09T02:37:59;99838.64;;;18.77;60.60
74466;BME280;62916;50.044;15.938;2023-04-09T02:40:31;99839.50;;;18.75;60.72
74466;BME280;62916;50.044;15.938;2023-04-09T02:43:01;99839.92;;;18.72;60.67
74466;BME280;62916;50.044;15.938;2023-04-09T02:45:32;99839.55;;;18.70;60.71
74466;BME280;62916;50.044;15.938;2023-04-09T02:48:03;99841.23;;;18.68;60.76
74466;BME280;62916;50.044;15.938;2023-04-09T02:50:34;99845.40;;;18.66;60.75
74466;BME280;62916;50.044;15.938;2023-04-09T02:53:05;99842.20;;;18.64;60.81
74466;BME280;62916;50.044;15.938;2023-04-09T02:55:36;99845.10;;;18.62;60.87
74466;BME280;62916;50.044;15.938;2023-04-09T02:58:07;99845.11;;;18.59;60.90
74466;BME280;62916;50.044;15.938;2023-04-09T03:00:38;99847.53;;;18.55;60.71
74466;BME280;62916;50.044;15.938;2023-04-09T03:03:08;99849.92;;;18.54;60.89
74466;BME280;62916;50.044;15.938;2023-04-09T03:05:40;99855.29;;;18.52;61.03
74466;BME280;62916;50.044;15.938;2023-04-09T03:08:10;99853.57;;;18.50;61.06
74466;BME280;62916;50.044;15.938;2023-04-09T03:10:41;99852.17;;;18.48;61.06
74466;BME280;62916;50.044;15.938;2023-04-09T03:13:12;99852.56;;;18.45;61.17
74466;BME280;62916;50.044;15.938;2023-04-09T03:15:43;99844.84;;;18.41;61.17
74466;BME280;62916;50.044;15.938;2023-04-09T03:18:14;99845.13;;;18.41;61.28
74466;BME280;62916;50.044;15.938;2023-04-09T03:20:45;99839.98;;;18.38;61.31
74466;BME280;62916;50.044;15.938;2023-04-09T03:23:17;99843.52;;;18.37;61.43
74466;BME280;62916;50.044;15.938;2023-04-09T03:25:48;99847.34;;;18.38;61.60
74466;BME280;62916;50.044;15.938;2023-04-09T03:28:19;99852.30;;;18.45;61.73
74466;BME280;62916;50.044;15.938;2023-04-09T03:30:50;99849.29;;;18.51;61.61
74466;BME280;62916;50.044;15.938;2023-04-09T03:33:20;99851.55;;;18.54;61.37
74466;BME280;62916;50.044;15.938;2023-04-09T03:35:51;99850.88;;;18.55;61.27
74466;BME280;62916;50.044;15.938;2023-04-09T03:38:22;99853.24;;;18.55;61.09
74466;BME280;62916;50.044;15.938;2023-04-09T03:40:53;99848.52;;;18.54;61.23
74466;BME280;62916;50.044;15.938;2023-04-09T03:43:25;99846.35;;;18.53;61.08
74466;BME280;62916;50.044;15.938;2023-04-09T03:45:56;99840.26;;;18.49;60.86
74466;BME280;62916;50.044;15.938;2023-04-09T03:48:27;99840.42;;;18.50;61.00
74466;BME280;62916;50.044;15.938;2023-04-09T03:50:57;99838.07;;;18.49;61.02
74466;BME280;62916;50.044;15.938;2023-04-09T03:53:28;99843.02;;;18.47;61.00
74466;BME280;62916;50.044;15.938;2023-04-09T03:55:59;99839.81;;;18.46;61.00
74466;BME280;62916;50.044;15.938;2023-04-09T03:58:31;99845.99;;;18.45;61.04
74466;BME280;62916;50.044;15.938;2023-04-09T04:01:02;99850.91;;;18.42;61.00
74466;BME280;62916;50.044;15.938;2023-04-09T04:03:32;99853.73;;;18.40;61.14
74466;BME280;62916;50.044;15.938;2023-04-09T04:06:04;99856.27;;;18.36;61.14
74466;BME280;62916;50.044;15.938;2023-04-09T04:08:35;99857.95;;;18.34;61.13
74466;BME280;62916;50.044;15.938;2023-04-09T04:11:06;99865.32;;;18.35;61.11
74466;BME280;62916;50.044;15.938;2023-04-09T04:13:37;99866.55;;;18.37;61.19
74466;BME280;62916;50.044;15.938;2023-04-09T04:16:10;99868.23;;;18.39;61.21
74466;BME280;62916;50.044;15.938;2023-04-09T04:18:41;99869.04;;;18.43;61.24
74466;BME280;62916;50.044;15.938;2023-04-09T04:21:14;99872.95;;;18.47;61.34
74466;BME280;62916;50.044;15.938;2023-04-09T04:23:45;99870.70;;;18.50;61.26
74466;BME280;62916;50.044;15.938;2023-04-09T04:26:16;99878.58;;;18.55;61.24
74466;BME280;62916;50.044;15.938;2023-04-09T04:28:47;99882.26;;;18.59;61.31
74466;BME280;62916;50.044;15.938;2023-04-09T04:31:20;99879.38;;;18.62;61.31
74466;BME280;62916;50.044;15.938;2023-04-09T04:33:53;99878.81;;;18.72;61.63
74466;BME280;62916;50.044;15.938;2023-04-09T04:36:24;99879.02;;;18.84;61.68
74466;BME280;62916;50.044;15.938;2023-04-09T04:38:54;99882.31;;;18.95;61.57
74466;BME280;62916;50.044;15.938;2023-04-09T04:41:25;99880.73;;;19.04;61.28
74466;BME280;62916;50.044;15.938;2023-04-09T04:43:56;99878.96;;;19.08;61.12
74466;BME280;62916;50.044;15.938;2023-04-09T04:46:27;99878.55;;;19.13;60.89
74466;BME280;62916;50.044;15.938;2023-04-09T04:48:58;99880.75;;;19.16;60.75
74466;BME280;62916;50.044;15.938;2023-04-09T04:51:30;99879.61;;;19.18;60.70
74466;BME280;62916;50.044;15.938;2023-04-09T04:54:01;99879.16;;;19.18;60.56
74466;BME280;62916;50.044;15.938;2023-04-09T04:56:32;99882.82;;;19.20;60.54
74466;BME280;62916;50.044;15.938;2023-04-09T04:59:03;99883.88;;;19.20;60.54
74466;BME280;62916;50.044;15.938;2023-04-09T05:01:34;99874.88;;;19.13;60.46
74466;BME280;62916;50.044;15.938;2023-04-09T05:04:05;99886.48;;;19.19;60.42
74466;BME280;62916;50.044;15.938;2023-04-09T05:06:36;99885.75;;;19.18;60.44
74466;BME280;62916;50.044;15.938;2023-04-09T05:09:07;99886.59;;;19.17;60.49
74466;BME280;62916;50.044;15.938;2023-04-09T05:11:37;99891.66;;;19.16;60.54
74466;BME280;62916;50.044;15.938;2023-04-09T05:14:08;99898.71;;;19.15;60.47
74466;BME280;62916;50.044;15.938;2023-04-09T05:16:39;99901.66;;;19.10;60.58
74466;BME280;62916;50.044;15.938;2023-04-09T05:19:10;99897.27;;;19.11;60.63
74466;BME280;62916;50.044;15.938;2023-04-09T05:21:40;99894.64;;;19.09;60.54
74466;BME280;62916;50.044;15.938;2023-04-09T05:24:13;99896.21;;;19.09;60.78
74466;BME280;62916;50.044;15.938;2023-04-09T05:26:44;99894.60;;;19.08;60.71
74466;BME280;62916;50.044;15.938;2023-04-09T05:29:15;99883.13;;;19.06;60.72
74466;BME280;62916;50.044;15.938;2023-04-09T05:31:46;99882.80;;;19.05;60.78
74466;BME280;62916;50.044;15.938;2023-04-09T05:34:17;99876.80;;;19.03;60.89
74466;BME280;62916;50.044;15.938;2023-04-09T05:36:47;99881.60;;;19.02;60.95
74466;BME280;62916;50.044;15.938;2023-04-09T05:39:18;99884.36;;;19.02;61.01
74466;BME280;62916;50.044;15.938;2023-04-09T05:41:49;99897.30;;;19.00;61.07
74466;BME280;62916;50.044;15.938;2023-04-09T05:44:20;99899.33;;;18.99;61.02
74466;BME280;62916;50.044;15.938;2023-04-09T05:46:51;99905.67;;;18.99;61.19
74466;BME280;62916;50.044;15.938;2023-04-09T05:49:22;99911.31;;;18.98;61.18
74466;BME280;62916;50.044;15.938;2023-04-09T05:51:54;99907.27;;;18.97;61.24
74466;BME280;62916;50.044;15.938;2023-04-09T05:54:25;99906.70;;;18.99;61.57
74466;BME280;62916;50.044;15.938;2023-04-09T05:56:55;99909.78;;;19.07;61.69
74466;BME280;62916;50.044;15.938;2023-04-09T05:59:26;99909.40;;;19.14;61.65
74466;BME280;62916;50.044;15.938;2023-04-09T06:01:57;99908.65;;;19.17;61.35
74466;BME280;62916;50.044;15.938;2023-04-09T06:04:28;99915.21;;;19.21;61.07
74466;BME280;62916;50.044;15.938;2023-04-09T06:07:00;99915.94;;;19.21;60.98
74466;BME280;62916;50.044;15.938;2023-04-09T06:09:31;99910.38;;;19.20;60.80
74466;BME280;62916;50.044;15.938;2023-04-09T06:12:02;99902.05;;;19.17;60.98
74466;BME280;62916;50.044;15.938;2023-04-09T06:14:34;99902.06;;;19.17;60.77
74466;BME280;62916;50.044;15.938;2023-04-09T06:17:05;99903.98;;;19.16;60.77
74466;BME280;62916;50.044;15.938;2023-04-09T06:19:36;99908.05;;;19.14;60.76
74466;BME280;62916;50.044;15.938;2023-04-09T06:22:09;99911.72;;;19.12;60.87
74466;BME280;62916;50.044;15.938;2023-04-09T06:24:40;99917.36;;;19.10;60.88
74466;BME280;62916;50.044;15.938;2023-04-09T06:27:11;99924.84;;;19.08;60.83
74466;BME280;62916;50.044;15.938;2023-04-09T06:29:42;99922.39;;;19.04;60.89
74466;BME280;62916;50.044;15.938;2023-04-09T06:32:13;99925.05;;;19.03;60.95
74466;BME280;62916;50.044;15.938;2023-04-09T06:34:43;99928.55;;;19.02;61.00
74466;BME280;62916;50.044;15.938;2023-04-09T06:37:14;99924.91;;;19.00;61.10
74466;BME280;62916;50.044;15.938;2023-04-09T06:39:45;99922.27;;;18.98;61.08
74466;BME280;62916;50.044;15.938;2023-04-09T06:42:22;99924.19;;;18.96;61.11
74466;BME280;62916;50.044;15.938;2023-04-09T06:44:55;99926.23;;;18.94;61.10
74466;BME280;62916;50.044;15.938;2023-04-09T06:47:25;99922.52;;;18.93;61.26
74466;BME280;62916;50.044;15.938;2023-04-09T06:49:56;99924.29;;;18.92;61.26
74466;BME280;62916;50.044;15.938;2023-04-09T06:52:27;99924.13;;;18.91;61.27
74466;BME280;62916;50.044;15.938;2023-04-09T06:54:58;99926.15;;;18.89;61.27
74466;BME280;62916;50.044;15.938;2023-04-09T06:57:29;99929.47;;;18.88;61.28
74466;BME280;62916;50.044;15.938;2023-04-09T07:00:00;99927.84;;;18.87;61.45
74466;BME280;62916;50.044;15.938;2023-04-09T07:02:32;99932.34;;;18.86;61.30
74466;BME280;62916;50.044;15.938;2023-04-09T07:05:04;99937.23;;;18.85;61.47
74466;BME280;62916;50.044;15.938;2023-04-09T07:07:36;99938.86;;;18.88;61.45
74466;BME280;62916;50.044;15.938;2023-04-09T07:10:08;99938.14;;;18.94;61.73
74466;BME280;62916;50.044;15.938;2023-04-09T07:12:39;99941.95;;;19.00;61.65
74466;BME280;62916;50.044;15.938;2023-04-09T07:15:10;99941.61;;;19.05;61.33
74466;BME280;62916;50.044;15.938;2023-04-09T07:17:41;99944.08;;;19.07;61.19
74466;BME280;62916;50.044;15.938;2023-04-09T07:20:13;99941.44;;;19.07;60.95
74466;BME280;62916;50.044;15.938;2023-04-09T07:22:44;99946.50;;;19.06;60.80
74466;BME280;62916;50.044;15.938;2023-04-09T07:25:15;99947.65;;;19.04;60.79
74466;BME280;62916;50.044;15.938;2023-04-09T07:27:46;99948.20;;;19.04;60.66
74466;BME280;62916;50.044;15.938;2023-04-09T07:30:18;99951.05;;;19.02;60.61
74466;BME280;62916;50.044;15.938;2023-04-09T07:32:49;99949.76;;;19.00;60.51
74466;BME280;62916;50.044;15.938;2023-04-09T07:35:20;99949.70;;;18.97;60.38
74466;BME280;62916;50.044;15.938;2023-04-09T07:37:51;99948.44;;;18.94;60.39
74466;BME280;62916;50.044;15.938;2023-04-09T07:40:23;99952.13;;;18.90;60.30
74466;BME280;62916;50.044;15.938;2023-04-09T07:42:54;99956.29;;;18.86;60.37
74466;BME280;62916;50.044;15.938;2023-04-09T07:45:26;99950.70;;;18.81;60.38
74466;BME280;62916;50.044;15.938;2023-04-09T07:47:57;99950.48;;;18.78;60.40
74466;BME280;62916;50.044;15.938;2023-04-09T07:50:29;99959.20;;;18.77;60.54
74466;BME280;62916;50.044;15.938;2023-04-09T07:53:00;99959.09;;;18.78;60.59
74466;BME280;62916;50.044;15.938;2023-04-09T07:55:31;99958.02;;;18.81;60.67
74466;BME280;62916;50.044;15.938;2023-04-09T07:58:02;99957.25;;;18.85;60.71
74466;BME280;62916;50.044;15.938;2023-04-09T08:00:34;99958.36;;;18.88;60.71
74466;BME280;62916;50.044;15.938;2023-04-09T08:03:05;99955.44;;;18.92;60.67
74466;BME280;62916;50.044;15.938;2023-04-09T08:05:37;99950.95;;;18.96;60.66
74466;BME280;62916;50.044;15.938;2023-04-09T08:08:08;99958.41;;;19.01;60.74
74466;BME280;62916;50.044;15.938;2023-04-09T08:10:39;99957.36;;;19.05;60.63
74466;BME280;62916;50.044;15.938;2023-04-09T08:13:10;99955.60;;;19.09;60.64
74466;BME280;62916;50.044;15.938;2023-04-09T08:15:41;99959.92;;;19.12;60.64
74466;BME280;62916;50.044;15.938;2023-04-09T08:18:12;99964.33;;;19.16;60.67
74466;BME280;62916;50.044;15.938;2023-04-09T08:20:43;99965.33;;;19.18;60.61
74466;BME280;62916;50.044;15.938;2023-04-09T08:23:14;99963.13;;;19.21;60.54
74466;BME280;62916;50.044;15.938;2023-04-09T08:25:45;99961.81;;;19.23;60.54
74466;BME280;62916;50.044;15.938;2023-04-09T08:28:16;99959.77;;;19.25;60.47
74466;BME280;62916;50.044;15.938;2023-04-09T08:30:47;99959.88;;;19.26;60.47
74466;BME280;62916;50.044;15.938;2023-04-09T08:33:18;99965.84;;;19.34;60.87
74466;BME280;62916;50.044;15.938;2023-04-09T08:35:49;99961.09;;;19.44;60.87
74466;BME280;62916;50.044;15.938;2023-04-09T08:38:20;99962.46;;;19.54;60.85
74466;BME280;62916;50.044;15.938;2023-04-09T08:40:51;99962.54;;;19.61;60.54
74466;BME280;62916;50.044;15.938;2023-04-09T08:43:23;99962.63;;;19.68;60.27
74466;BME280;62916;50.044;15.938;2023-04-09T08:46:16;99966.30;;;19.74;59.97
74466;BME280;62916;50.044;15.938;2023-04-09T08:48:49;99964.34;;;19.76;59.92
74466;BME280;62916;50.044;15.938;2023-04-09T08:51:19;99966.23;;;19.80;59.79
74466;BME280;62916;50.044;15.938;2023-04-09T08:53:59;99967.52;;;19.81;59.85
74466;BME280;62916;50.044;15.938;2023-04-09T08:56:33;99964.59;;;19.83;59.76
74466;BME280;62916;50.044;15.938;2023-04-09T08:59:04;99962.23;;;19.86;59.78
74466;BME280;62916;50.044;15.938;2023-04-09T09:01:35;99964.02;;;19.88;59.71
74466;BME280;62916;50.044;15.938;2023-04-09T09:04:07;99962.16;;;19.89;59.59
74466;BME280;62916;50.044;15.938;2023-04-09T09:06:40;99960.09;;;19.86;59.56
74466;BME280;62916;50.044;15.938;2023-04-09T09:09:12;99961.41;;;19.90;59.64
74466;BME280;62916;50.044;15.938;2023-04-09T09:11:44;99959.49;;;19.92;59.57
74466;BME280;62916;50.044;15.938;2023-04-09T09:14:17;99955.32;;;19.93;59.52
74466;BME280;62916;50.044;15.938;2023-04-09T09:17:04;99959.13;;;19.94;59.51
74466;BME280;62916;50.044;15.938;2023-04-09T09:19:37;99962.31;;;19.95;59.46
74466;BME280;62916;50.044;15.938;2023-04-09T09:22:08;99957.02;;;19.97;59.57
74466;BME280;62916;50.044;15.938;2023-04-09T09:24:48;99958.28;;;20.00;59.64
74466;BME280;62916;50.044;15.938;2023-04-09T09:27:34;99955.96;;;20.02;59.58
74466;BME280;62916;50.044;15.938;2023-04-09T09:30:09;99953.17;;;20.05;59.59
74466;BME280;62916;50.044;15.938;2023-04-09T09:32:52;99952.16;;;20.08;59.61
74466;BME280;62916;50.044;15.938;2023-04-09T09:35:24;99950.46;;;20.10;59.66
74466;BME280;62916;50.044;15.938;2023-04-09T09:38:03;99955.02;;;20.10;59.57
74466;BME280;62916;50.044;15.938;2023-04-09T09:40:34;99955.08;;;20.11;59.50
74466;BME280;62916;50.044;15.938;2023-04-09T09:43:05;99955.97;;;20.11;59.38
74466;BME280;62916;50.044;15.938;2023-04-09T09:45:36;99954.63;;;20.11;59.30
74466;BME280;62916;50.044;15.938;2023-04-09T09:48:10;99954.51;;;20.10;59.19
74466;BME280;62916;50.044;15.938;2023-04-09T09:50:43;99955.87;;;20.10;59.29
74466;BME280;62916;50.044;15.938;2023-04-09T09:53:17;99955.42;;;20.09;59.20
74466;BME280;62916;50.044;15.938;2023-04-09T09:55:54;99958.46;;;20.09;59.16
74466;BME280;62916;50.044;15.938;2023-04-09T09:58:30;99958.29;;;20.09;59.20
74466;BME280;62916;50.044;15.938;2023-04-09T10:01:02;99954.97;;;20.10;59.02
74466;BME280;62916;50.044;15.938;2023-04-09T10:03:39;99952.53;;;20.12;59.27
74466;BME280;62916;50.044;15.938;2023-04-09T10:06:11;99950.27;;;20.15;59.28
74466;BME280;62916;50.044;15.938;2023-04-09T10:08:43;99948.68;;;20.18;59.18
74466;BME280;62916;50.044;15.938;2023-04-09T10:11:16;99946.29;;;20.20;59.29
74466;BME280;62916;50.044;15.938;2023-04-09T10:13:52;99946.05;;;20.23;59.15
74466;BME280;62916;50.044;15.938;2023-04-09T10:16:27;99951.20;;;20.25;59.04
74466;BME280;62916;50.044;15.938;2023-04-09T10:18:59;99946.05;;;20.27;58.73
74466;BME280;62916;50.044;15.938;2023-04-09T10:21:37;99946.08;;;20.29;58.77
74466;BME280;62916;50.044;15.938;2023-04-09T10:24:11;99950.11;;;20.32;58.78
74466;BME280;62916;50.044;15.938;2023-04-09T10:26:43;99944.02;;;20.33;58.81
74466;BME280;62916;50.044;15.938;2023-04-09T10:29:15;99941.05;;;20.32;58.48
74466;BME280;62916;50.044;15.938;2023-04-09T10:31:52;99951.14;;;20.36;58.57
74466;BME280;62916;50.044;15.938;2023-04-09T10:34:25;99950.63;;;20.39;58.34
74466;BME280;62916;50.044;15.938;2023-04-09T10:36:58;99946.20;;;20.41;58.45
74466;BME280;62916;50.044;15.938;2023-04-09T10:39:31;99947.65;;;20.43;58.48
74466;BME280;62916;50.044;15.938;2023-04-09T10:42:13;99942.77;;;20.45;58.27
74466;BME280;62916;50.044;15.938;2023-04-09T10:44:44;99944.42;;;20.47;58.42
74466;BME280;62916;50.044;15.938;2023-04-09T10:47:31;99937.14;;;20.49;58.31
74466;BME280;62916;50.044;15.938;2023-04-09T10:50:18;99937.45;;;20.51;58.45
74466;BME280;62916;50.044;15.938;2023-04-09T10:52:52;99936.14;;;20.53;58.29
74466;BME280;62916;50.044;15.938;2023-04-09T10:55:38;99935.51;;;20.54;58.30
74466;BME280;62916;50.044;15.938;2023-04-09T10:58:11;99930.35;;;20.56;58.24
74466;BME280;62916;50.044;15.938;2023-04-09T11:00:43;99926.65;;;20.58;58.34
74466;BME280;62916;50.044;15.938;2023-04-09T11:03:22;99929.00;;;20.61;58.24
74466;BME280;62916;50.044;15.938;2023-04-09T11:05:58;99927.80;;;20.62;58.08
74466;BME280;62916;50.044;15.938;2023-04-09T11:08:31;99924.27;;;20.65;58.10
74466;BME280;62916;50.044;15.938;2023-04-09T11:11:02;99924.25;;;20.66;58.03
74466;BME280;62916;50.044;15.938;2023-04-09T11:13:34;99922.70;;;20.67;58.15
74466;BME280;62916;50.044;15.938;2023-04-09T11:16:07;99923.42;;;20.68;58.07
74466;BME280;62916;50.044;15.938;2023-04-09T11:18:38;99921.28;;;20.68;57.85
74466;BME280;62916;50.044;15.938;2023-04-09T11:21:10;99921.23;;;20.69;58.19
74466;BME280;62916;50.044;15.938;2023-04-09T11:23:42;99921.83;;;20.69;57.75
74466;BME280;62916;50.044;15.938;2023-04-09T11:26:25;99919.45;;;20.70;58.00
74466;BME280;62916;50.044;15.938;2023-04-09T11:29:07;99917.65;;;20.70;57.93
74466;BME280;62916;50.044;15.938;2023-04-09T11:31:38;99916.92;;;20.69;57.97
74466;BME280;62916;50.044;15.938;2023-04-09T11:34:10;99919.18;;;20.70;57.78
74466;BME280;62916;50.044;15.938;2023-04-09T11:36:41;99917.65;;;20.70;57.93
74466;BME280;62916;50.044;15.938;2023-04-09T11:39:13;99916.07;;;20.70;57.86
74466;BME280;62916;50.044;15.938;2023-04-09T11:41:44;99916.42;;;20.69;57.88
74466;BME280;62916;50.044;15.938;2023-04-09T11:44:15;99917.09;;;20.70;57.98
74466;BME280;62916;50.044;15.938;2023-04-09T11:46:47;99912.30;;;20.69;57.92
74466;BME280;62916;50.044;15.938;2023-04-09T11:49:20;99911.75;;;20.68;57.86
74466;BME280;62916;50.044;15.938;2023-04-09T11:51:51;99914.69;;;20.68;57.85
74466;BME280;62916;50.044;15.938;2023-04-09T11:54:23;99916.50;;;20.67;57.92
74466;BME280;62916;50.044;15.938;2023-04-09T11:56:54;99916.13;;;20.66;57.95
74466;BME280;62916;50.044;15.938;2023-04-09T11:59:25;99914.52;;;20.65;57.84
74466;BME280;62916;50.044;15.938;2023-04-09T12:01:58;99920.06;;;20.63;58.03
74466;BME280;62916;50.044;15.938;2023-04-09T12:04:32;99923.05;;;20.64;57.87
74466;BME280;62916;50.044;15.938;2023-04-09T12:07:06;99923.96;;;20.63;57.92
74466;BME280;62916;50.044;15.938;2023-04-09T12:12:24;99931.19;;;20.61;57.98
74466;BME280;62916;50.044;15.938;2023-04-09T12:14:56;99932.99;;;20.61;57.92
74466;BME280;62916;50.044;15.938;2023-04-09T12:17:28;99933.91;;;20.60;57.95
74466;BME280;62916;50.044;15.938;2023-04-09T12:20:03;99929.02;;;20.58;58.06
74466;BME280;62916;50.044;15.938;2023-04-09T12:22:35;99930.99;;;20.58;57.91
74466;BME280;62916;50.044;15.938;2023-04-09T12:25:10;99930.44;;;20.57;57.97
74466;BME280;62916;50.044;15.938;2023-04-09T12:27:41;99932.52;;;20.57;57.92
74466;BME280;62916;50.044;15.938;2023-04-09T12:30:14;99928.27;;;20.56;58.03
74466;BME280;62916;50.044;15.938;2023-04-09T12:32:45;99924.11;;;20.55;57.93
74466;BME280;62916;50.044;15.938;2023-04-09T12:35:16;99922.56;;;20.53;56.99
74466;BME280;62916;50.044;15.938;2023-04-09T12:37:47;99924.23;;;20.50;56.68
74466;BME280;62916;50.044;15.938;2023-04-09T12:40:19;99923.52;;;20.47;56.67
74466;BME280;62916;50.044;15.938;2023-04-09T12:42:50;99922.11;;;20.47;56.89
74466;BME280;62916;50.044;15.938;2023-04-09T12:45:23;99922.33;;;20.48;57.09
74466;BME280;62916;50.044;15.938;2023-04-09T12:47:54;99921.71;;;20.47;57.08
74466;BME280;62916;50.044;15.938;2023-04-09T12:50:26;99923.73;;;20.47;57.39
74466;BME280;62916;50.044;15.938;2023-04-09T12:52:57;99922.90;;;20.47;57.40
74466;BME280;62916;50.044;15.938;2023-04-09T12:55:28;99919.36;;;20.47;57.51
74466;BME280;62916;50.044;15.938;2023-04-09T12:57:59;99920.65;;;20.47;57.58
74466;BME280;62916;50.044;15.938;2023-04-09T13:00:31;99919.55;;;20.46;57.46
74466;BME280;62916;50.044;15.938;2023-04-09T13:03:02;99918.47;;;20.46;57.57
74466;BME280;62916;50.044;15.938;2023-04-09T13:05:33;99916.85;;;20.45;57.61
74466;BME280;62916;50.044;15.938;2023-04-09T13:08:05;99914.66;;;20.45;57.75
74466;BME280;62916;50.044;15.938;2023-04-09T13:10:36;99913.55;;;20.44;57.73
74466;BME280;62916;50.044;15.938;2023-04-09T13:13:07;99912.53;;;20.44;57.69
74466;BME280;62916;50.044;15.938;2023-04-09T13:15:41;99914.45;;;20.44;57.68
74466;BME280;62916;50.044;15.938;2023-04-09T13:18:13;99916.33;;;20.43;57.69
74466;BME280;62916;50.044;15.938;2023-04-09T13:20:45;99915.02;;;20.43;57.80